sensor_id;sensor_type;location;lat;lon;timestamp;temperature;humidity
15241;DHT22;7723;52.170;9.978;2022-07-05T00:01:33;14.90;99.90
15241;DHT22;7723;52.170;9.978;2022-07-05T00:04:00;14.80;99.90
15241;DHT22;7723;52.170;9.978;2022-07-05T00:06:28;14.80;99.90
15241;DHT22;7723;52.170;9.978;2022-07-05T00:08:55;14.80;99.90
15241;DHT22;7723;52.170;9.978;2022-07-05T00:11:22;14.70;99.90
15241;DHT22;7723;52.170;9.978;2022-07-05T00:13:49;14.60;99.90
15241;DHT22;7723;52.170;9.978;2022-07-05T00:16:17;14.60;99.90
15241;DHT22;7723;52.170;9.978;2022-07-05T00:18:44;14.60;99.90
15241;DHT22;7723;52.170;9.978;2022-07-05T00:21:11;14.50;99.90
15241;DHT22;7723;52.170;9.978;2022-07-05T00:23:39;14.50;99.90
15241;DHT22;7723;52.170;9.978;2022-07-05T00:26:07;14.50;99.90
15241;DHT22;7723;52.170;9.978;2022-07-05T00:28:34;14.40;99.90
15241;DHT22;7723;52.170;9.978;2022-07-05T00:31:01;14.30;99.90
15241;DHT22;7723;52.170;9.978;2022-07-05T00:33:28;14.30;99.90
15241;DHT22;7723;52.170;9.978;2022-07-05T00:35:55;14.20;99.90
15241;DHT22;7723;52.170;9.978;2022-07-05T00:38:22;14.20;99.90
15241;DHT22;7723;52.170;9.978;2022-07-05T00:40:51;14.10;99.90
15241;DHT22;7723;52.170;9.978;2022-07-05T00:43:18;14.10;99.90
15241;DHT22;7723;52.170;9.978;2022-07-05T00:45:45;14.10;99.90
15241;DHT22;7723;52.170;9.978;2022-07-05T00:48:12;14.10;99.90
15241;DHT22;7723;52.170;9.978;2022-07-05T00:50:40;14.10;99.90
15241;DHT22;7723;52.170;9.978;2022-07-05T00:53:08;14.20;99.90
15241;DHT22;7723;52.170;9.978;2022-07-05T00:55:35;14.20;99.90
15241;DHT22;7723;52.170;9.978;2022-07-05T00:58:04;14.10;99.90
15241;DHT22;7723;52.170;9.978;2022-07-05T01:00:31;14.10;99.90
15241;DHT22;7723;52.170;9.978;2022-07-05T01:02:59;14.10;99.90
15241;DHT22;7723;52.170;9.978;2022-07-05T01:05:30;14.10;99.90
15241;DHT22;7723;52.170;9.978;2022-07-05T01:07:59;14.00;99.90
15241;DHT22;7723;52.170;9.978;2022-07-05T01:10:27;14.00;99.90
15241;DHT22;7723;52.170;9.978;2022-07-05T01:12:54;14.10;99.90
15241;DHT22;7723;52.170;9.978;2022-07-05T01:15:24;14.00;99.90
15241;DHT22;7723;52.170;9.978;2022-07-05T01:17:51;13.90;99.90
15241;DHT22;7723;52.170;9.978;2022-07-05T01:20:18;13.90;99.90
15241;DHT22;7723;52.170;9.978;2022-07-05T01:22:51;13.90;99.90
15241;DHT22;7723;52.170;9.978;2022-07-05T01:25:20;13.90;99.90
15241;DHT22;7723;52.170;9.978;2022-07-05T01:27:48;13.80;99.90
15241;DHT22;7723;52.170;9.978;2022-07-05T01:30:16;13.70;99.90
15241;DHT22;7723;52.170;9.978;2022-07-05T01:32:44;13.70;99.90
15241;DHT22;7723;52.170;9.978;2022-07-05T01:35:12;13.60;99.90
15241;DHT22;7723;52.170;9.978;2022-07-05T01:37:39;13.60;99.90
15241;DHT22;7723;52.170;9.978;2022-07-05T01:40:09;13.60;99.90
15241;DHT22;7723;52.170;9.978;2022-07-05T01:42:36;13.70;99.90
15241;DHT22;7723;52.170;9.978;2022-07-05T01:45:04;13.60;99.90
15241;DHT22;7723;52.170;9.978;2022-07-05T01:47:32;13.60;99.90
15241;DHT22;7723;52.170;9.978;2022-07-05T01:50:04;13.60;99.90
15241;DHT22;7723;52.170;9.978;2022-07-05T01:52:34;13.60;99.90
15241;DHT22;7723;52.170;9.978;2022-07-05T01:55:04;13.60;99.90
15241;DHT22;7723;52.170;9.978;2022-07-05T01:57:33;13.60;99.90
15241;DHT22;7723;52.170;9.978;2022-07-05T02:00:00;13.60;99.90
15241;DHT22;7723;52.170;9.978;2022-07-05T02:02:27;13.50;99.90
15241;DHT22;7723;52.170;9.978;2022-07-05T02:04:54;13.50;99.90
15241;DHT22;7723;52.170;9.978;2022-07-05T02:07:21;13.50;99.90
15241;DHT22;7723;52.170;9.978;2022-07-05T02:09:48;13.40;99.90
15241;DHT22;7723;52.170;9.978;2022-07-05T02:12:15;13.40;99.90
15241;DHT22;7723;52.170;9.978;2022-07-05T02:14:44;13.40;99.90
15241;DHT22;7723;52.170;9.978;2022-07-05T02:17:11;13.40;99.90
15241;DHT22;7723;52.170;9.978;2022-07-05T02:19:38;13.40;99.90
15241;DHT22;7723;52.170;9.978;2022-07-05T02:22:05;13.40;99.90
15241;DHT22;7723;52.170;9.978;2022-07-05T02:24:33;13.30;99.90
15241;DHT22;7723;52.170;9.978;2022-07-05T02:27:00;13.40;99.90
15241;DHT22;7723;52.170;9.978;2022-07-05T02:29:30;13.30;99.90
15241;DHT22;7723;52.170;9.978;2022-07-05T02:31:59;13.30;99.90
15241;DHT22;7723;52.170;9.978;2022-07-05T02:34:26;13.30;99.90
15241;DHT22;7723;52.170;9.978;2022-07-05T02:36:53;13.20;99.90
15241;DHT22;7723;52.170;9.978;2022-07-05T02:39:20;13.30;99.90
15241;DHT22;7723;52.170;9.978;2022-07-05T02:41:47;13.20;99.90
15241;DHT22;7723;52.170;9.978;2022-07-05T02:44:14;13.20;99.90
15241;DHT22;7723;52.170;9.978;2022-07-05T02:46:42;13.20;99.90
15241;DHT22;7723;52.170;9.978;2022-07-05T02:49:10;13.10;99.90
15241;DHT22;7723;52.170;9.978;2022-07-05T02:51:37;13.20;99.90
15241;DHT22;7723;52.170;9.978;2022-07-05T02:54:04;13.10;99.90
15241;DHT22;7723;52.170;9.978;2022-07-05T02:56:31;13.10;99.90
15241;DHT22;7723;52.170;9.978;2022-07-05T02:58:59;13.20;99.90
15241;DHT22;7723;52.170;9.978;2022-07-05T03:01:26;13.20;99.90
15241;DHT22;7723;52.170;9.978;2022-07-05T03:03:54;13.10;99.90
15241;DHT22;7723;52.170;9.978;2022-07-05T03:06:22;13.10;99.90
15241;DHT22;7723;52.170;9.978;2022-07-05T03:08:49;13.20;99.90
15241;DHT22;7723;52.170;9.978;2022-07-05T03:11:16;13.10;99.90
15241;DHT22;7723;52.170;9.978;2022-07-05T03:13:45;13.20;99.90
15241;DHT22;7723;52.170;9.978;2022-07-05T03:16:13;13.20;99.90
15241;DHT22;7723;52.170;9.978;2022-07-05T03:18:40;13.20;99.90
15241;DHT22;7723;52.170;9.978;2022-07-05T03:21:07;13.20;99.90
15241;DHT22;7723;52.170;9.978;2022-07-05T03:23:36;13.30;99.90
15241;DHT22;7723;52.170;9.978;2022-07-05T03:26:03;13.40;99.90
15241;DHT22;7723;52.170;9.978;2022-07-05T03:28:31;13.40;99.90
15241;DHT22;7723;52.170;9.978;2022-07-05T03:30:58;13.50;99.90
15241;DHT22;7723;52.170;9.978;2022-07-05T03:33:26;13.60;99.90
15241;DHT22;7723;52.170;9.978;2022-07-05T03:35:53;13.60;99.90
15241;DHT22;7723;52.170;9.978;2022-07-05T03:38:20;13.60;99.90
15241;DHT22;7723;52.170;9.978;2022-07-05T03:40:49;13.60;99.90
15241;DHT22;7723;52.170;9.978;2022-07-05T03:43:16;13.60;99.90
15241;DHT22;7723;52.170;9.978;2022-07-05T03:45:43;13.70;99.90
15241;DHT22;7723;52.170;9.978;2022-07-05T03:48:10;13.80;99.90
15241;DHT22;7723;52.170;9.978;2022-07-05T03:50:37;13.90;99.90
15241;DHT22;7723;52.170;9.978;2022-07-05T03:53:04;14.00;99.90
15241;DHT22;7723;52.170;9.978;2022-07-05T03:55:31;14.10;99.90
15241;DHT22;7723;52.170;9.978;2022-07-05T03:58:00;14.10;99.90
15241;DHT22;7723;52.170;9.978;2022-07-05T04:00:27;14.10;99.90
15241;DHT22;7723;52.170;9.978;2022-07-05T04:02:54;14.10;99.90
15241;DHT22;7723;52.170;9.978;2022-07-05T04:05:23;14.20;99.90
15241;DHT22;7723;52.170;9.978;2022-07-05T04:07:52;14.20;99.90
15241;DHT22;7723;52.170;9.978;2022-07-05T04:10:20;14.30;99.90
15241;DHT22;7723;52.170;9.978;2022-07-05T04:12:47;14.20;99.90
15241;DHT22;7723;52.170;9.978;2022-07-05T04:15:15;14.20;99.90
15241;DHT22;7723;52.170;9.978;2022-07-05T04:17:47;14.10;99.90
15241;DHT22;7723;52.170;9.978;2022-07-05T04:20:14;14.10;99.90
15241;DHT22;7723;52.170;9.978;2022-07-05T04:22:41;14.10;99.90
15241;DHT22;7723;52.170;9.978;2022-07-05T04:25:09;14.10;99.90
15241;DHT22;7723;52.170;9.978;2022-07-05T04:27:46;14.10;99.90
15241;DHT22;7723;52.170;9.978;2022-07-05T04:30:15;14.20;99.90
15241;DHT22;7723;52.170;9.978;2022-07-05T04:32:43;14.30;99.90
15241;DHT22;7723;52.170;9.978;2022-07-05T04:35:10;14.40;99.90
15241;DHT22;7723;52.170;9.978;2022-07-05T04:37:38;14.40;99.90
15241;DHT22;7723;52.170;9.978;2022-07-05T04:40:07;14.70;99.90
15241;DHT22;7723;52.170;9.978;2022-07-05T04:42:34;14.70;99.90
15241;DHT22;7723;52.170;9.978;2022-07-05T04:45:02;14.70;99.90
15241;DHT22;7723;52.170;9.978;2022-07-05T04:47:31;14.90;99.90
15241;DHT22;7723;52.170;9.978;2022-07-05T04:50:00;15.00;99.90
15241;DHT22;7723;52.170;9.978;2022-07-05T04:52:27;15.10;99.90
15241;DHT22;7723;52.170;9.978;2022-07-05T04:54:54;15.30;99.90
15241;DHT22;7723;52.170;9.978;2022-07-05T04:57:22;15.60;99.90
15241;DHT22;7723;52.170;9.978;2022-07-05T04:59:49;15.80;99.90
15241;DHT22;7723;52.170;9.978;2022-07-05T05:02:16;16.00;99.90
15241;DHT22;7723;52.170;9.978;2022-07-05T05:04:45;16.20;99.90
15241;DHT22;7723;52.170;9.978;2022-07-05T05:07:12;16.40;99.90
15241;DHT22;7723;52.170;9.978;2022-07-05T05:09:39;16.60;99.90
15241;DHT22;7723;52.170;9.978;2022-07-05T05:12:07;16.80;99.90
15241;DHT22;7723;52.170;9.978;2022-07-05T05:14:34;17.10;99.90
15241;DHT22;7723;52.170;9.978;2022-07-05T05:17:02;17.80;98.30
15241;DHT22;7723;52.170;9.978;2022-07-05T05:19:29;18.20;90.10
15241;DHT22;7723;52.170;9.978;2022-07-05T05:21:57;18.10;88.60
15241;DHT22;7723;52.170;9.978;2022-07-05T05:24:24;18.50;84.30
15241;DHT22;7723;52.170;9.978;2022-07-05T05:26:51;19.00;67.80
15241;DHT22;7723;52.170;9.978;2022-07-05T05:29:19;19.60;52.70
15241;DHT22;7723;52.170;9.978;2022-07-05T05:31:46;19.70;36.80
15241;DHT22;7723;52.170;9.978;2022-07-05T05:34:13;19.80;37.20
15241;DHT22;7723;52.170;9.978;2022-07-05T05:36:40;20.10;32.60
15241;DHT22;7723;52.170;9.978;2022-07-05T05:39:09;20.50;27.00
15241;DHT22;7723;52.170;9.978;2022-07-05T05:41:36;21.20;19.40
15241;DHT22;7723;52.170;9.978;2022-07-05T05:44:04;21.70;12.80
15241;DHT22;7723;52.170;9.978;2022-07-05T05:46:31;21.80;8.70
15241;DHT22;7723;52.170;9.978;2022-07-05T05:48:58;22.10;7.70
15241;DHT22;7723;52.170;9.978;2022-07-05T05:51:25;22.20;5.00
15241;DHT22;7723;52.170;9.978;2022-07-05T05:53:52;22.60;3.70
15241;DHT22;7723;52.170;9.978;2022-07-05T05:56:20;23.40;1.00
15241;DHT22;7723;52.170;9.978;2022-07-05T05:58:47;23.80;1.00
15241;DHT22;7723;52.170;9.978;2022-07-05T06:01:15;24.30;1.00
15241;DHT22;7723;52.170;9.978;2022-07-05T06:03:42;24.50;1.00
15241;DHT22;7723;52.170;9.978;2022-07-05T06:06:09;24.60;1.00
15241;DHT22;7723;52.170;9.978;2022-07-05T06:08:36;24.50;1.00
15241;DHT22;7723;52.170;9.978;2022-07-05T06:11:03;24.60;1.00
15241;DHT22;7723;52.170;9.978;2022-07-05T06:13:32;24.50;1.00
15241;DHT22;7723;52.170;9.978;2022-07-05T06:15:59;24.70;1.00
15241;DHT22;7723;52.170;9.978;2022-07-05T06:18:26;24.90;1.00
15241;DHT22;7723;52.170;9.978;2022-07-05T06:20:53;24.60;1.00
15241;DHT22;7723;52.170;9.978;2022-07-05T06:23:20;24.70;1.00
15241;DHT22;7723;52.170;9.978;2022-07-05T06:25:47;25.00;1.00
15241;DHT22;7723;52.170;9.978;2022-07-05T06:28:14;24.90;1.00
15241;DHT22;7723;52.170;9.978;2022-07-05T06:30:43;25.10;1.00
15241;DHT22;7723;52.170;9.978;2022-07-05T06:33:12;25.50;1.00
15241;DHT22;7723;52.170;9.978;2022-07-05T06:35:39;25.60;1.00
15241;DHT22;7723;52.170;9.978;2022-07-05T06:38:07;26.10;1.00
15241;DHT22;7723;52.170;9.978;2022-07-05T06:40:36;25.70;1.00
15241;DHT22;7723;52.170;9.978;2022-07-05T06:43:05;25.20;1.00
15241;DHT22;7723;52.170;9.978;2022-07-05T06:45:33;24.30;1.00
15241;DHT22;7723;52.170;9.978;2022-07-05T06:48:04;24.80;1.00
15241;DHT22;7723;52.170;9.978;2022-07-05T06:50:33;25.10;1.00
15241;DHT22;7723;52.170;9.978;2022-07-05T06:53:01;25.10;1.00
15241;DHT22;7723;52.170;9.978;2022-07-05T06:55:29;25.60;1.00
15241;DHT22;7723;52.170;9.978;2022-07-05T06:58:00;25.30;1.00
15241;DHT22;7723;52.170;9.978;2022-07-05T07:00:28;24.60;1.00
15241;DHT22;7723;52.170;9.978;2022-07-05T07:02:56;24.50;1.00
15241;DHT22;7723;52.170;9.978;2022-07-05T07:05:26;23.50;1.00
15241;DHT22;7723;52.170;9.978;2022-07-05T07:07:53;23.00;1.00
15241;DHT22;7723;52.170;9.978;2022-07-05T07:10:38;22.60;1.00
15241;DHT22;7723;52.170;9.978;2022-07-05T07:13:05;23.10;1.00
15241;DHT22;7723;52.170;9.978;2022-07-05T07:15:33;24.00;1.00
15241;DHT22;7723;52.170;9.978;2022-07-05T07:18:00;23.80;1.00
15241;DHT22;7723;52.170;9.978;2022-07-05T07:20:28;24.10;1.00
15241;DHT22;7723;52.170;9.978;2022-07-05T07:22:56;25.00;1.00
15241;DHT22;7723;52.170;9.978;2022-07-05T07:25:24;25.60;1.00
15241;DHT22;7723;52.170;9.978;2022-07-05T07:27:52;25.70;1.00
15241;DHT22;7723;52.170;9.978;2022-07-05T07:30:21;25.60;1.00
15241;DHT22;7723;52.170;9.978;2022-07-05T07:32:49;26.10;1.00
15241;DHT22;7723;52.170;9.978;2022-07-05T07:35:16;26.90;1.00
15241;DHT22;7723;52.170;9.978;2022-07-05T07:37:44;27.40;1.00
15241;DHT22;7723;52.170;9.978;2022-07-05T07:40:12;27.70;1.00
15241;DHT22;7723;52.170;9.978;2022-07-05T07:42:39;27.60;1.00
15241;DHT22;7723;52.170;9.978;2022-07-05T07:45:07;27.70;1.00
15241;DHT22;7723;52.170;9.978;2022-07-05T07:47:36;26.90;1.00
15241;DHT22;7723;52.170;9.978;2022-07-05T07:50:04;26.50;1.00
15241;DHT22;7723;52.170;9.978;2022-07-05T07:52:32;26.40;1.00
15241;DHT22;7723;52.170;9.978;2022-07-05T07:55:01;26.40;1.00
15241;DHT22;7723;52.170;9.978;2022-07-05T07:57:29;26.00;1.00
15241;DHT22;7723;52.170;9.978;2022-07-05T07:59:56;25.70;1.00
15241;DHT22;7723;52.170;9.978;2022-07-05T08:02:23;25.60;1.00
15241;DHT22;7723;52.170;9.978;2022-07-05T08:04:51;24.70;1.00
15241;DHT22;7723;52.170;9.978;2022-07-05T08:07:19;24.30;1.00
15241;DHT22;7723;52.170;9.978;2022-07-05T08:09:46;24.20;1.00
15241;DHT22;7723;52.170;9.978;2022-07-05T08:12:14;24.20;1.00
15241;DHT22;7723;52.170;9.978;2022-07-05T08:14:42;24.60;1.00
15241;DHT22;7723;52.170;9.978;2022-07-05T08:17:09;25.20;1.00
15241;DHT22;7723;52.170;9.978;2022-07-05T08:19:36;26.30;1.00
15241;DHT22;7723;52.170;9.978;2022-07-05T08:22:21;26.60;1.00
15241;DHT22;7723;52.170;9.978;2022-07-05T08:24:49;26.90;1.00
15241;DHT22;7723;52.170;9.978;2022-07-05T08:27:18;27.00;1.00
15241;DHT22;7723;52.170;9.978;2022-07-05T08:29:45;27.10;1.00
15241;DHT22;7723;52.170;9.978;2022-07-05T08:32:12;26.10;1.00
15241;DHT22;7723;52.170;9.978;2022-07-05T08:34:39;25.20;1.00
15241;DHT22;7723;52.170;9.978;2022-07-05T08:37:07;25.10;1.00
15241;DHT22;7723;52.170;9.978;2022-07-05T08:39:34;25.90;1.00
15241;DHT22;7723;52.170;9.978;2022-07-05T08:42:02;26.40;1.00
15241;DHT22;7723;52.170;9.978;2022-07-05T08:44:33;26.40;1.00
15241;DHT22;7723;52.170;9.978;2022-07-05T08:47:08;26.30;1.00
15241;DHT22;7723;52.170;9.978;2022-07-05T08:49:37;26.10;1.00
15241;DHT22;7723;52.170;9.978;2022-07-05T08:52:09;25.80;1.00
15241;DHT22;7723;52.170;9.978;2022-07-05T08:54:37;25.70;1.00
15241;DHT22;7723;52.170;9.978;2022-07-05T08:57:04;25.70;1.00
15241;DHT22;7723;52.170;9.978;2022-07-05T08:59:33;25.90;1.00
15241;DHT22;7723;52.170;9.978;2022-07-05T09:02:01;26.50;1.00
15241;DHT22;7723;52.170;9.978;2022-07-05T09:04:30;27.10;1.00
15241;DHT22;7723;52.170;9.978;2022-07-05T09:07:02;26.70;1.00
15241;DHT22;7723;52.170;9.978;2022-07-05T09:09:31;26.50;1.00
15241;DHT22;7723;52.170;9.978;2022-07-05T09:11:59;25.30;1.00
15241;DHT22;7723;52.170;9.978;2022-07-05T09:14:26;24.40;1.00
15241;DHT22;7723;52.170;9.978;2022-07-05T09:16:56;24.40;1.00
15241;DHT22;7723;52.170;9.978;2022-07-05T09:19:23;24.10;1.00
15241;DHT22;7723;52.170;9.978;2022-07-05T09:22:01;24.20;1.00
15241;DHT22;7723;52.170;9.978;2022-07-05T09:24:29;24.00;1.00
15241;DHT22;7723;52.170;9.978;2022-07-05T09:27:01;24.00;1.00
15241;DHT22;7723;52.170;9.978;2022-07-05T09:29:29;23.90;1.00
15241;DHT22;7723;52.170;9.978;2022-07-05T09:31:58;24.10;1.00
15241;DHT22;7723;52.170;9.978;2022-07-05T09:34:25;24.50;1.00
15241;DHT22;7723;52.170;9.978;2022-07-05T09:36:56;24.60;1.00
15241;DHT22;7723;52.170;9.978;2022-07-05T09:39:39;24.20;1.00
15241;DHT22;7723;52.170;9.978;2022-07-05T09:42:16;23.70;1.00
15241;DHT22;7723;52.170;9.978;2022-07-05T09:44:47;23.50;1.00
15241;DHT22;7723;52.170;9.978;2022-07-05T09:47:18;24.20;1.00
15241;DHT22;7723;52.170;9.978;2022-07-05T09:49:47;25.20;1.00
15241;DHT22;7723;52.170;9.978;2022-07-05T09:52:26;25.90;1.00
15241;DHT22;7723;52.170;9.978;2022-07-05T09:55:07;26.20;1.00
15241;DHT22;7723;52.170;9.978;2022-07-05T09:57:36;26.70;1.00
15241;DHT22;7723;52.170;9.978;2022-07-05T10:00:06;26.40;1.00
15241;DHT22;7723;52.170;9.978;2022-07-05T10:02:36;25.40;1.00
15241;DHT22;7723;52.170;9.978;2022-07-05T10:05:11;25.40;1.00
15241;DHT22;7723;52.170;9.978;2022-07-05T10:07:41;25.80;1.00
15241;DHT22;7723;52.170;9.978;2022-07-05T10:10:11;25.80;1.00
15241;DHT22;7723;52.170;9.978;2022-07-05T10:12:39;26.10;1.00
15241;DHT22;7723;52.170;9.978;2022-07-05T10:15:10;26.10;1.00
15241;DHT22;7723;52.170;9.978;2022-07-05T10:17:41;25.40;1.00
15241;DHT22;7723;52.170;9.978;2022-07-05T10:20:14;25.10;1.00
15241;DHT22;7723;52.170;9.978;2022-07-05T10:22:43;25.90;1.00
15241;DHT22;7723;52.170;9.978;2022-07-05T10:25:11;26.40;1.00
15241;DHT22;7723;52.170;9.978;2022-07-05T10:27:38;26.60;1.00
15241;DHT22;7723;52.170;9.978;2022-07-05T10:30:07;25.80;1.00
15241;DHT22;7723;52.170;9.978;2022-07-05T10:32:34;26.10;1.00
15241;DHT22;7723;52.170;9.978;2022-07-05T10:35:04;26.60;1.00
15241;DHT22;7723;52.170;9.978;2022-07-05T10:37:33;26.80;1.00
15241;DHT22;7723;52.170;9.978;2022-07-05T10:40:03;26.30;1.00
15241;DHT22;7723;52.170;9.978;2022-07-05T10:42:36;25.80;1.00
15241;DHT22;7723;52.170;9.978;2022-07-05T10:45:23;25.30;1.00
15241;DHT22;7723;52.170;9.978;2022-07-05T10:48:12;25.40;1.00
15241;DHT22;7723;52.170;9.978;2022-07-05T10:50:51;25.30;1.00
15241;DHT22;7723;52.170;9.978;2022-07-05T10:53:20;25.10;1.00
15241;DHT22;7723;52.170;9.978;2022-07-05T10:55:56;25.10;1.00
15241;DHT22;7723;52.170;9.978;2022-07-05T10:58:33;25.10;1.00
15241;DHT22;7723;52.170;9.978;2022-07-05T11:01:36;24.60;1.00
15241;DHT22;7723;52.170;9.978;2022-07-05T11:04:27;24.20;1.00
15241;DHT22;7723;52.170;9.978;2022-07-05T11:07:00;24.40;1.00
15241;DHT22;7723;52.170;9.978;2022-07-05T11:09:28;24.70;1.00
15241;DHT22;7723;52.170;9.978;2022-07-05T11:12:06;24.70;1.00
15241;DHT22;7723;52.170;9.978;2022-07-05T11:14:37;24.80;1.00
15241;DHT22;7723;52.170;9.978;2022-07-05T11:17:22;24.60;1.00
15241;DHT22;7723;52.170;9.978;2022-07-05T11:23:02;24.80;1.00
15241;DHT22;7723;52.170;9.978;2022-07-05T11:25:32;24.50;1.00
15241;DHT22;7723;52.170;9.978;2022-07-05T11:28:03;24.70;1.00
15241;DHT22;7723;52.170;9.978;2022-07-05T11:30:45;24.70;1.00
15241;DHT22;7723;52.170;9.978;2022-07-05T11:33:39;24.30;1.00
15241;DHT22;7723;52.170;9.978;2022-07-05T11:36:21;24.70;1.00
15241;DHT22;7723;52.170;9.978;2022-07-05T11:39:10;24.60;1.00
15241;DHT22;7723;52.170;9.978;2022-07-05T11:41:38;24.40;1.00
15241;DHT22;7723;52.170;9.978;2022-07-05T11:44:06;24.60;1.00
15241;DHT22;7723;52.170;9.978;2022-07-05T11:46:34;24.10;1.00
15241;DHT22;7723;52.170;9.978;2022-07-05T11:49:01;24.50;1.00
15241;DHT22;7723;52.170;9.978;2022-07-05T11:51:28;24.50;1.00
15241;DHT22;7723;52.170;9.978;2022-07-05T11:53:56;24.20;1.00
15241;DHT22;7723;52.170;9.978;2022-07-05T11:56:25;24.30;1.00
15241;DHT22;7723;52.170;9.978;2022-07-05T11:58:53;24.20;1.00
15241;DHT22;7723;52.170;9.978;2022-07-05T12:01:20;23.80;1.00
15241;DHT22;7723;52.170;9.978;2022-07-05T12:03:54;23.60;1.00
15241;DHT22;7723;52.170;9.978;2022-07-05T12:06:22;23.50;1.00
15241;DHT22;7723;52.170;9.978;2022-07-05T12:09:04;23.40;1.00
15241;DHT22;7723;52.170;9.978;2022-07-05T12:11:32;23.60;1.00
15241;DHT22;7723;52.170;9.978;2022-07-05T12:14:21;23.80;1.00
15241;DHT22;7723;52.170;9.978;2022-07-05T12:16:49;24.00;1.00
15241;DHT22;7723;52.170;9.978;2022-07-05T12:19:26;23.80;1.00
15241;DHT22;7723;52.170;9.978;2022-07-05T12:21:53;24.00;1.00
15241;DHT22;7723;52.170;9.978;2022-07-05T12:24:21;24.20;1.00
15241;DHT22;7723;52.170;9.978;2022-07-05T12:26:51;23.70;1.00
15241;DHT22;7723;52.170;9.978;2022-07-05T12:29:19;23.60;1.00
15241;DHT22;7723;52.170;9.978;2022-07-05T12:32:00;23.60;1.00
15241;DHT22;7723;52.170;9.978;2022-07-05T12:34:27;23.60;1.00
15241;DHT22;7723;52.170;9.978;2022-07-05T12:36:55;23.90;1.00
15241;DHT22;7723;52.170;9.978;2022-07-05T12:39:23;24.00;1.00
15241;DHT22;7723;52.170;9.978;2022-07-05T12:41:52;24.00;1.00
15241;DHT22;7723;52.170;9.978;2022-07-05T12:44:19;23.80;1.00
15241;DHT22;7723;52.170;9.978;2022-07-05T12:46:47;23.60;1.00
15241;DHT22;7723;52.170;9.978;2022-07-05T12:49:16;23.70;1.00
15241;DHT22;7723;52.170;9.978;2022-07-05T12:51:45;23.70;1.00
15241;DHT22;7723;52.170;9.978;2022-07-05T12:54:19;23.50;1.00
15241;DHT22;7723;52.170;9.978;2022-07-05T12:57:06;23.50;1.00
15241;DHT22;7723;52.170;9.978;2022-07-05T12:59:57;23.60;1.00
15241;DHT22;7723;52.170;9.978;2022-07-05T13:02:39;23.40;1.00
15241;DHT22;7723;52.170;9.978;2022-07-05T13:05:08;23.60;1.00
15241;DHT22;7723;52.170;9.978;2022-07-05T13:07:42;23.80;1.00
15241;DHT22;7723;52.170;9.978;2022-07-05T13:10:14;24.00;1.00
15241;DHT22;7723;52.170;9.978;2022-07-05T13:12:43;24.20;1.00
15241;DHT22;7723;52.170;9.978;2022-07-05T13:15:11;24.40;1.00
15241;DHT22;7723;52.170;9.978;2022-07-05T13:17:40;24.40;1.00
15241;DHT22;7723;52.170;9.978;2022-07-05T13:20:08;24.10;1.00
15241;DHT22;7723;52.170;9.978;2022-07-05T13:22:36;23.80;1.00
15241;DHT22;7723;52.170;9.978;2022-07-05T13:25:04;23.80;1.00
15241;DHT22;7723;52.170;9.978;2022-07-05T13:27:31;24.00;1.00
15241;DHT22;7723;52.170;9.978;2022-07-05T13:30:02;24.30;1.00
15241;DHT22;7723;52.170;9.978;2022-07-05T13:32:29;24.20;1.00
15241;DHT22;7723;52.170;9.978;2022-07-05T13:34:57;24.30;1.00
15241;DHT22;7723;52.170;9.978;2022-07-05T13:37:24;24.20;1.00
15241;DHT22;7723;52.170;9.978;2022-07-05T13:39:51;24.20;1.00
15241;DHT22;7723;52.170;9.978;2022-07-05T13:42:18;24.10;1.00
15241;DHT22;7723;52.170;9.978;2022-07-05T13:44:45;24.30;1.00
15241;DHT22;7723;52.170;9.978;2022-07-05T13:47:14;24.40;1.00
15241;DHT22;7723;52.170;9.978;2022-07-05T13:49:41;24.70;1.00
15241;DHT22;7723;52.170;9.978;2022-07-05T13:52:09;24.40;1.00
15241;DHT22;7723;52.170;9.978;2022-07-05T13:54:36;24.20;1.00
15241;DHT22;7723;52.170;9.978;2022-07-05T13:57:04;24.10;1.00
15241;DHT22;7723;52.170;9.978;2022-07-05T13:59:31;24.00;1.00
15241;DHT22;7723;52.170;9.978;2022-07-05T14:01:58;24.00;1.00
15241;DHT22;7723;52.170;9.978;2022-07-05T14:04:27;24.00;1.00
15241;DHT22;7723;52.170;9.978;2022-07-05T14:06:55;23.80;1.00
15241;DHT22;7723;52.170;9.978;2022-07-05T14:09:22;23.20;1.00
15241;DHT22;7723;52.170;9.978;2022-07-05T14:11:51;23.20;1.00
15241;DHT22;7723;52.170;9.978;2022-07-05T14:14:18;23.30;1.00
15241;DHT22;7723;52.170;9.978;2022-07-05T14:16:45;23.40;1.00
15241;DHT22;7723;52.170;9.978;2022-07-05T14:19:12;23.30;1.00
15241;DHT22;7723;52.170;9.978;2022-07-05T14:21:41;23.30;1.00
15241;DHT22;7723;52.170;9.978;2022-07-05T14:24:12;23.50;1.00
15241;DHT22;7723;52.170;9.978;2022-07-05T14:26:39;23.60;1.00
15241;DHT22;7723;52.170;9.978;2022-07-05T14:29:06;23.80;1.00
15241;DHT22;7723;52.170;9.978;2022-07-05T14:31:33;24.00;1.00
15241;DHT22;7723;52.170;9.978;2022-07-05T14:34:01;23.80;1.00
15241;DHT22;7723;52.170;9.978;2022-07-05T14:36:28;23.70;1.00
15241;DHT22;7723;52.170;9.978;2022-07-05T14:38:56;23.80;1.00
15241;DHT22;7723;52.170;9.978;2022-07-05T14:41:26;23.60;1.00
15241;DHT22;7723;52.170;9.978;2022-07-05T14:43:53;23.60;1.00
15241;DHT22;7723;52.170;9.978;2022-07-05T14:46:21;23.60;1.00
15241;DHT22;7723;52.170;9.978;2022-07-05T14:48:48;23.70;1.00
15241;DHT22;7723;52.170;9.978;2022-07-05T14:51:15;23.50;1.00
15241;DHT22;7723;52.170;9.978;2022-07-05T14:53:42;23.20;1.00
15241;DHT22;7723;52.170;9.978;2022-07-05T14:56:13;23.10;1.00
15241;DHT22;7723;52.170;9.978;2022-07-05T14:58:40;23.30;1.00
15241;DHT22;7723;52.170;9.978;2022-07-05T15:01:07;23.40;1.00
15241;DHT22;7723;52.170;9.978;2022-07-05T15:03:35;23.50;1.00
15241;DHT22;7723;52.170;9.978;2022-07-05T15:06:02;23.60;1.00
15241;DHT22;7723;52.170;9.978;2022-07-05T15:08:30;23.60;1.00
15241;DHT22;7723;52.170;9.978;2022-07-05T15:10:57;23.60;1.00
15241;DHT22;7723;52.170;9.978;2022-07-05T15:13:26;23.70;1.00
15241;DHT22;7723;52.170;9.978;2022-07-05T15:15:54;23.60;1.00
15241;DHT22;7723;52.170;9.978;2022-07-05T15:18:22;23.40;1.00
15241;DHT22;7723;52.170;9.978;2022-07-05T15:20:49;23.50;1.00
15241;DHT22;7723;52.170;9.978;2022-07-05T15:23:17;23.60;1.00
15241;DHT22;7723;52.170;9.978;2022-07-05T15:25:45;23.60;1.00
15241;DHT22;7723;52.170;9.978;2022-07-05T15:28:12;23.50;1.00
15241;DHT22;7723;52.170;9.978;2022-07-05T15:30:42;23.50;1.00
15241;DHT22;7723;52.170;9.978;2022-07-05T15:33:10;23.60;1.00
15241;DHT22;7723;52.170;9.978;2022-07-05T15:35:37;23.60;1.00
15241;DHT22;7723;52.170;9.978;2022-07-05T15:38:04;23.60;1.00
15241;DHT22;7723;52.170;9.978;2022-07-05T15:40:31;23.60;1.00
15241;DHT22;7723;52.170;9.978;2022-07-05T15:42:59;23.30;1.00
15241;DHT22;7723;52.170;9.978;2022-07-05T15:45:29;23.20;1.00
15241;DHT22;7723;52.170;9.978;2022-07-05T15:47:58;23.10;1.00
15241;DHT22;7723;52.170;9.978;2022-07-05T15:50:25;22.90;1.00
15241;DHT22;7723;52.170;9.978;2022-07-05T15:52:52;22.80;1.00
15241;DHT22;7723;52.170;9.978;2022-07-05T15:55:19;22.90;1.00
15241;DHT22;7723;52.170;9.978;2022-07-05T15:57:46;22.80;1.00
15241;DHT22;7723;52.170;9.978;2022-07-05T16:00:14;22.90;1.00
15241;DHT22;7723;52.170;9.978;2022-07-05T16:02:41;22.90;1.00
15241;DHT22;7723;52.170;9.978;2022-07-05T16:05:11;23.00;1.00
15241;DHT22;7723;52.170;9.978;2022-07-05T16:07:38;23.00;1.00
15241;DHT22;7723;52.170;9.978;2022-07-05T16:10:06;23.00;1.00
15241;DHT22;7723;52.170;9.978;2022-07-05T16:12:34;22.90;1.00